sensor_id;sensor_type;location;lat;lon;timestamp;temperature;humidity
84265;DHT22;74412;45.626;5.108;2024-02-26T00:00:08;8.74;79.62
84265;DHT22;74412;45.626;5.108;2024-02-26T00:02:35;8.75;79.55
84265;DHT22;74412;45.626;5.108;2024-02-26T00:05:05;8.75;79.54
84265;DHT22;74412;45.626;5.108;2024-02-26T00:07:33;8.75;79.72
84265;DHT22;74412;45.626;5.108;2024-02-26T00:09:59;8.77;79.49
84265;DHT22;74412;45.626;5.108;2024-02-26T00:12:26;8.77;79.38
84265;DHT22;74412;45.626;5.108;2024-02-26T00:14:52;8.83;79.38
84265;DHT22;74412;45.626;5.108;2024-02-26T00:17:19;8.81;79.15
84265;DHT22;74412;45.626;5.108;2024-02-26T00:19:46;8.83;79.50
84265;DHT22;74412;45.626;5.108;2024-02-26T00:22:14;8.83;79.29
84265;DHT22;74412;45.626;5.108;2024-02-26T00:24:40;8.87;79.21
84265;DHT22;74412;45.626;5.108;2024-02-26T00:27:07;8.89;79.43
84265;DHT22;74412;45.626;5.108;2024-02-26T00:29:34;8.88;79.31
84265;DHT22;74412;45.626;5.108;2024-02-26T00:32:00;8.89;79.17
84265;DHT22;74412;45.626;5.108;2024-02-26T00:34:27;8.91;78.96
84265;DHT22;74412;45.626;5.108;2024-02-26T00:36:53;8.95;78.80
84265;DHT22;74412;45.626;5.108;2024-02-26T00:39:21;8.97;78.97
84265;DHT22;74412;45.626;5.108;2024-02-26T00:41:48;8.98;78.93
84265;DHT22;74412;45.626;5.108;2024-02-26T00:44:16;9.00;78.81
84265;DHT22;74412;45.626;5.108;2024-02-26T00:46:43;9.00;78.91
84265;DHT22;74412;45.626;5.108;2024-02-26T00:49:10;9.04;78.68
84265;DHT22;74412;45.626;5.108;2024-02-26T00:51:36;9.07;78.84
84265;DHT22;74412;45.626;5.108;2024-02-26T00:54:03;9.05;78.60
84265;DHT22;74412;45.626;5.108;2024-02-26T00:56:31;9.03;78.28
84265;DHT22;74412;45.626;5.108;2024-02-26T00:58:58;9.05;78.44
84265;DHT22;74412;45.626;5.108;2024-02-26T01:01:25;9.07;78.35
84265;DHT22;74412;45.626;5.108;2024-02-26T01:03:51;9.08;78.27
84265;DHT22;74412;45.626;5.108;2024-02-26T01:06:18;9.10;78.23
84265;DHT22;74412;45.626;5.108;2024-02-26T01:08:44;9.07;77.97
84265;DHT22;74412;45.626;5.108;2024-02-26T01:11:11;9.07;78.04
84265;DHT22;74412;45.626;5.108;2024-02-26T01:13:39;9.08;77.97
84265;DHT22;74412;45.626;5.108;2024-02-26T01:16:06;9.11;78.02
84265;DHT22;74412;45.626;5.108;2024-02-26T01:18:32;9.10;77.96
84265;DHT22;74412;45.626;5.108;2024-02-26T01:20:59;9.08;78.02
84265;DHT22;74412;45.626;5.108;2024-02-26T01:23:26;9.08;78.07
84265;DHT22;74412;45.626;5.108;2024-02-26T01:25:52;9.08;77.84
84265;DHT22;74412;45.626;5.108;2024-02-26T01:28:19;9.10;78.11
84265;DHT22;74412;45.626;5.108;2024-02-26T01:30:47;9.12;78.15
84265;DHT22;74412;45.626;5.108;2024-02-26T01:33:14;9.11;78.06
84265;DHT22;74412;45.626;5.108;2024-02-26T01:35:40;9.12;77.89
84265;DHT22;74412;45.626;5.108;2024-02-26T01:38:07;9.11;77.83
84265;DHT22;74412;45.626;5.108;2024-02-26T01:40:33;9.11;77.84
84265;DHT22;74412;45.626;5.108;2024-02-26T01:43:02;9.11;77.76
84265;DHT22;74412;45.626;5.108;2024-02-26T01:45:28;9.11;77.51
84265;DHT22;74412;45.626;5.108;2024-02-26T01:47:56;9.10;77.76
84265;DHT22;74412;45.626;5.108;2024-02-26T01:50:23;9.10;77.76
84265;DHT22;74412;45.626;5.108;2024-02-26T01:52:51;9.10;77.49
84265;DHT22;74412;45.626;5.108;2024-02-26T01:55:18;9.10;77.65
84265;DHT22;74412;45.626;5.108;2024-02-26T01:57:47;9.08;77.53
84265;DHT22;74412;45.626;5.108;2024-02-26T02:00:18;9.11;77.56
84265;DHT22;74412;45.626;5.108;2024-02-26T02:02:46;9.10;77.63
84265;DHT22;74412;45.626;5.108;2024-02-26T02:05:16;9.08;77.49
84265;DHT22;74412;45.626;5.108;2024-02-26T02:07:43;9.08;77.36
84265;DHT22;74412;45.626;5.108;2024-02-26T02:10:10;9.05;77.36
84265;DHT22;74412;45.626;5.108;2024-02-26T02:12:37;9.07;77.26
84265;DHT22;74412;45.626;5.108;2024-02-26T02:15:06;9.04;77.32
84265;DHT22;74412;45.626;5.108;2024-02-26T02:17:32;9.03;77.43
84265;DHT22;74412;45.626;5.108;2024-02-26T02:19:59;9.03;77.46
84265;DHT22;74412;45.626;5.108;2024-02-26T02:22:27;8.98;77.54
84265;DHT22;74412;45.626;5.108;2024-02-26T02:24:53;8.98;77.55
84265;DHT22;74412;45.626;5.108;2024-02-26T02:27:20;8.98;77.61
84265;DHT22;74412;45.626;5.108;2024-02-26T02:29:47;8.97;77.50
84265;DHT22;74412;45.626;5.108;2024-02-26T02:32:16;8.97;77.48
84265;DHT22;74412;45.626;5.108;2024-02-26T02:34:43;8.94;77.48
84265;DHT22;74412;45.626;5.108;2024-02-26T02:37:11;8.94;77.54
84265;DHT22;74412;45.626;5.108;2024-02-26T02:39:39;8.94;77.56
84265;DHT22;74412;45.626;5.108;2024-02-26T02:42:07;8.94;77.56
84265;DHT22;74412;45.626;5.108;2024-02-26T02:44:34;8.92;77.54
84265;DHT22;74412;45.626;5.108;2024-02-26T02:47:00;8.91;77.63
84265;DHT22;74412;45.626;5.108;2024-02-26T02:49:27;8.91;77.53
84265;DHT22;74412;45.626;5.108;2024-02-26T02:51:54;8.92;77.46
84265;DHT22;74412;45.626;5.108;2024-02-26T02:54:22;8.91;77.63
84265;DHT22;74412;45.626;5.108;2024-02-26T02:56:50;8.89;77.56
84265;DHT22;74412;45.626;5.108;2024-02-26T02:59:17;8.88;77.63
84265;DHT22;74412;45.626;5.108;2024-02-26T03:01:44;8.91;77.72
84265;DHT22;74412;45.626;5.108;2024-02-26T03:04:10;8.91;77.63
84265;DHT22;74412;45.626;5.108;2024-02-26T03:06:37;8.92;77.52
84265;DHT22;74412;45.626;5.108;2024-02-26T03:09:03;8.91;77.67
84265;DHT22;74412;45.626;5.108;2024-02-26T03:11:30;8.88;77.69
84265;DHT22;74412;45.626;5.108;2024-02-26T03:13:58;8.89;77.67
84265;DHT22;74412;45.626;5.108;2024-02-26T03:16:25;8.87;77.69
84265;DHT22;74412;45.626;5.108;2024-02-26T03:18:52;8.88;77.69
84265;DHT22;74412;45.626;5.108;2024-02-26T03:21:18;8.89;77.69
84265;DHT22;74412;45.626;5.108;2024-02-26T03:23:45;8.91;77.73
84265;DHT22;74412;45.626;5.108;2024-02-26T03:26:11;8.89;77.65
84265;DHT22;74412;45.626;5.108;2024-02-26T03:28:39;8.91;77.81
84265;DHT22;74412;45.626;5.108;2024-02-26T03:31:08;8.89;77.82
84265;DHT22;74412;45.626;5.108;2024-02-26T03:33:35;8.89;77.71
84265;DHT22;74412;45.626;5.108;2024-02-26T03:36:02;8.88;77.72
84265;DHT22;74412;45.626;5.108;2024-02-26T03:38:29;8.89;77.73
84265;DHT22;74412;45.626;5.108;2024-02-26T03:40:56;8.88;77.80
84265;DHT22;74412;45.626;5.108;2024-02-26T03:43:22;8.88;77.85
84265;DHT22;74412;45.626;5.108;2024-02-26T03:45:49;8.85;77.88
84265;DHT22;74412;45.626;5.108;2024-02-26T03:48:17;8.87;77.88
84265;DHT22;74412;45.626;5.108;2024-02-26T03:50:43;8.85;77.92
84265;DHT22;74412;45.626;5.108;2024-02-26T03:53:10;8.84;77.91
84265;DHT22;74412;45.626;5.108;2024-02-26T03:55:38;8.85;77.96
84265;DHT22;74412;45.626;5.108;2024-02-26T03:58:07;8.84;77.96
84265;DHT22;74412;45.626;5.108;2024-02-26T04:00:33;8.83;78.07
84265;DHT22;74412;45.626;5.108;2024-02-26T04:03:00;8.83;78.11
84265;DHT22;74412;45.626;5.108;2024-02-26T04:05:28;8.81;78.14
84265;DHT22;74412;45.626;5.108;2024-02-26T04:07:55;8.81;78.14
84265;DHT22;74412;45.626;5.108;2024-02-26T04:10:21;8.84;78.19
84265;DHT22;74412;45.626;5.108;2024-02-26T04:12:48;8.80;78.25
84265;DHT22;74412;45.626;5.108;2024-02-26T04:15:15;8.78;78.24
84265;DHT22;74412;45.626;5.108;2024-02-26T04:17:42;8.80;78.19
84265;DHT22;74412;45.626;5.108;2024-02-26T04:20:13;8.80;78.16
84265;DHT22;74412;45.626;5.108;2024-02-26T04:22:42;8.78;78.25
84265;DHT22;74412;45.626;5.108;2024-02-26T04:25:08;8.75;78.23
84265;DHT22;74412;45.626;5.108;2024-02-26T04:27:35;8.77;78.22
84265;DHT22;74412;45.626;5.108;2024-02-26T04:30:02;8.75;78.29
84265;DHT22;74412;45.626;5.108;2024-02-26T04:32:29;8.75;78.42
84265;DHT22;74412;45.626;5.108;2024-02-26T04:34:56;8.74;78.33
84265;DHT22;74412;45.626;5.108;2024-02-26T04:37:23;8.73;78.43
84265;DHT22;74412;45.626;5.108;2024-02-26T04:39:51;8.74;78.47
84265;DHT22;74412;45.626;5.108;2024-02-26T04:42:17;8.73;78.53
84265;DHT22;74412;45.626;5.108;2024-02-26T04:44:44;8.74;78.51
84265;DHT22;74412;45.626;5.108;2024-02-26T04:47:10;8.73;78.52
84265;DHT22;74412;45.626;5.108;2024-02-26T04:49:38;8.74;78.43
84265;DHT22;74412;45.626;5.108;2024-02-26T04:52:05;8.71;78.43
84265;DHT22;74412;45.626;5.108;2024-02-26T04:54:31;8.74;78.43
84265;DHT22;74412;45.626;5.108;2024-02-26T04:56:59;8.70;78.43
84265;DHT22;74412;45.626;5.108;2024-02-26T04:59:26;8.71;78.39
84265;DHT22;74412;45.626;5.108;2024-02-26T05:01:53;8.71;78.45
84265;DHT22;74412;45.626;5.108;2024-02-26T05:04:19;8.70;78.39
84265;DHT22;74412;45.626;5.108;2024-02-26T05:06:46;8.70;78.33
84265;DHT22;74412;45.626;5.108;2024-02-26T05:09:12;8.71;78.36
84265;DHT22;74412;45.626;5.108;2024-02-26T05:11:39;8.70;78.37
84265;DHT22;74412;45.626;5.108;2024-02-26T05:14:08;8.71;78.39
84265;DHT22;74412;45.626;5.108;2024-02-26T05:16:34;8.71;78.46
84265;DHT22;74412;45.626;5.108;2024-02-26T05:19:01;8.71;78.37
84265;DHT22;74412;45.626;5.108;2024-02-26T05:21:28;8.70;78.30
84265;DHT22;74412;45.626;5.108;2024-02-26T05:23:54;8.70;78.30
84265;DHT22;74412;45.626;5.108;2024-02-26T05:26:21;8.70;78.30
84265;DHT22;74412;45.626;5.108;2024-02-26T05:28:48;8.68;78.25
84265;DHT22;74412;45.626;5.108;2024-02-26T05:31:17;8.68;78.20
84265;DHT22;74412;45.626;5.108;2024-02-26T05:33:44;8.68;78.23
84265;DHT22;74412;45.626;5.108;2024-02-26T05:36:18;8.68;78.13
84265;DHT22;74412;45.626;5.108;2024-02-26T05:38:44;8.70;78.04
84265;DHT22;74412;45.626;5.108;2024-02-26T05:41:11;8.73;78.01
84265;DHT22;74412;45.626;5.108;2024-02-26T05:43:38;8.68;77.97
84265;DHT22;74412;45.626;5.108;2024-02-26T05:46:05;8.68;77.97
84265;DHT22;74412;45.626;5.108;2024-02-26T05:48:32;8.65;77.87
84265;DHT22;74412;45.626;5.108;2024-02-26T05:50:59;8.65;77.81
84265;DHT22;74412;45.626;5.108;2024-02-26T05:53:26;8.63;77.79
84265;DHT22;74412;45.626;5.108;2024-02-26T05:55:52;8.61;77.74
84265;DHT22;74412;45.626;5.108;2024-02-26T05:58:19;8.59;77.81
84265;DHT22;74412;45.626;5.108;2024-02-26T06:00:46;8.59;77.82
84265;DHT22;74412;45.626;5.108;2024-02-26T06:03:12;8.57;77.84
84265;DHT22;74412;45.626;5.108;2024-02-26T06:05:41;8.53;77.78
84265;DHT22;74412;45.626;5.108;2024-02-26T06:08:08;8.52;77.82
84265;DHT22;74412;45.626;5.108;2024-02-26T06:10:35;8.50;77.98
84265;DHT22;74412;45.626;5.108;2024-02-26T06:13:01;8.47;78.00
84265;DHT22;74412;45.626;5.108;2024-02-26T06:15:28;8.46;78.01
84265;DHT22;74412;45.626;5.108;2024-02-26T06:17:54;8.44;78.10
84265;DHT22;74412;45.626;5.108;2024-02-26T06:20:21;8.47;78.07
84265;DHT22;74412;45.626;5.108;2024-02-26T06:22:49;8.44;78.13
84265;DHT22;74412;45.626;5.108;2024-02-26T06:25:16;8.43;78.13
84265;DHT22;74412;45.626;5.108;2024-02-26T06:27:42;8.43;78.16
84265;DHT22;74412;45.626;5.108;2024-02-26T06:30:10;8.43;78.10
84265;DHT22;74412;45.626;5.108;2024-02-26T06:32:36;8.40;78.01
84265;DHT22;74412;45.626;5.108;2024-02-26T06:35:04;8.44;78.05
84265;DHT22;74412;45.626;5.108;2024-02-26T06:37:32;8.44;78.06
84265;DHT22;74412;45.626;5.108;2024-02-26T06:40:00;8.46;78.06
84265;DHT22;74412;45.626;5.108;2024-02-26T06:42:29;8.46;78.03
84265;DHT22;74412;45.626;5.108;2024-02-26T06:44:56;8.47;77.95
84265;DHT22;74412;45.626;5.108;2024-02-26T06:47:22;8.50;78.14
84265;DHT22;74412;45.626;5.108;2024-02-26T06:49:49;8.52;78.12
84265;DHT22;74412;45.626;5.108;2024-02-26T06:52:15;8.54;78.04
84265;DHT22;74412;45.626;5.108;2024-02-26T06:54:42;8.57;78.09
84265;DHT22;74412;45.626;5.108;2024-02-26T06:57:11;8.64;78.11
84265;DHT22;74412;45.626;5.108;2024-02-26T06:59:38;8.65;78.08
84265;DHT22;74412;45.626;5.108;2024-02-26T07:02:05;8.67;77.99
84265;DHT22;74412;45.626;5.108;2024-02-26T07:04:32;8.70;77.98
84265;DHT22;74412;45.626;5.108;2024-02-26T07:06:59;8.73;77.89
84265;DHT22;74412;45.626;5.108;2024-02-26T07:09:25;8.75;77.85
84265;DHT22;74412;45.626;5.108;2024-02-26T07:11:52;8.78;77.91
84265;DHT22;74412;45.626;5.108;2024-02-26T07:14:20;8.80;77.61
84265;DHT22;74412;45.626;5.108;2024-02-26T07:16:46;8.81;77.64
84265;DHT22;74412;45.626;5.108;2024-02-26T07:19:13;8.88;77.64
84265;DHT22;74412;45.626;5.108;2024-02-26T07:21:40;8.89;77.49
84265;DHT22;74412;45.626;5.108;2024-02-26T07:24:06;8.91;77.44
84265;DHT22;74412;45.626;5.108;2024-02-26T07:26:33;8.97;77.37
84265;DHT22;74412;45.626;5.108;2024-02-26T07:29:00;9.00;77.34
84265;DHT22;74412;45.626;5.108;2024-02-26T07:31:28;9.03;77.36
84265;DHT22;74412;45.626;5.108;2024-02-26T07:33:54;9.04;77.20
84265;DHT22;74412;45.626;5.108;2024-02-26T07:36:21;9.08;77.17
84265;DHT22;74412;45.626;5.108;2024-02-26T07:38:47;9.08;77.24
84265;DHT22;74412;45.626;5.108;2024-02-26T07:41:14;9.12;76.93
84265;DHT22;74412;45.626;5.108;2024-02-26T07:43:41;9.14;76.99
84265;DHT22;74412;45.626;5.108;2024-02-26T07:46:07;9.18;76.98
84265;DHT22;74412;45.626;5.108;2024-02-26T07:48:35;9.21;76.93
84265;DHT22;74412;45.626;5.108;2024-02-26T07:51:02;9.24;76.75
84265;DHT22;74412;45.626;5.108;2024-02-26T07:53:29;9.24;76.61
84265;DHT22;74412;45.626;5.108;2024-02-26T07:55:56;9.27;76.66
84265;DHT22;74412;45.626;5.108;2024-02-26T07:58:23;9.28;76.67
84265;DHT22;74412;45.626;5.108;2024-02-26T08:00:50;9.32;76.63
84265;DHT22;74412;45.626;5.108;2024-02-26T08:03:17;9.38;76.64
84265;DHT22;74412;45.626;5.108;2024-02-26T08:05:45;9.42;76.64
84265;DHT22;74412;45.626;5.108;2024-02-26T08:08:11;9.50;76.34
84265;DHT22;74412;45.626;5.108;2024-02-26T08:10:38;9.60;76.25
84265;DHT22;74412;45.626;5.108;2024-02-26T08:13:05;9.72;76.07
84265;DHT22;74412;45.626;5.108;2024-02-26T08:15:31;9.82;76.20
84265;DHT22;74412;45.626;5.108;2024-02-26T08:17:59;9.92;75.98
84265;DHT22;74412;45.626;5.108;2024-02-26T08:20:27;9.99;75.41
84265;DHT22;74412;45.626;5.108;2024-02-26T08:22:55;10.03;75.12
84265;DHT22;74412;45.626;5.108;2024-02-26T08:25:22;10.10;75.07
84265;DHT22;74412;45.626;5.108;2024-02-26T08:27:49;10.18;74.87
84265;DHT22;74412;45.626;5.108;2024-02-26T08:30:16;10.29;75.28
84265;DHT22;74412;45.626;5.108;2024-02-26T08:32:43;10.43;74.98
84265;DHT22;74412;45.626;5.108;2024-02-26T08:35:10;10.55;74.31
84265;DHT22;74412;45.626;5.108;2024-02-26T08:37:37;10.60;73.88
84265;DHT22;74412;45.626;5.108;2024-02-26T08:40:06;10.58;73.49
84265;DHT22;74412;45.626;5.108;2024-02-26T08:42:33;10.60;73.81
84265;DHT22;74412;45.626;5.108;2024-02-26T08:45:00;10.60;73.78
84265;DHT22;74412;45.626;5.108;2024-02-26T08:47:26;10.63;73.39
84265;DHT22;74412;45.626;5.108;2024-02-26T08:49:53;10.61;73.26
84265;DHT22;74412;45.626;5.108;2024-02-26T08:52:20;10.61;73.50
84265;DHT22;74412;45.626;5.108;2024-02-26T08:54:48;10.60;73.36
84265;DHT22;74412;45.626;5.108;2024-02-26T08:57:17;10.61;73.07
84265;DHT22;74412;45.626;5.108;2024-02-26T08:59:43;10.61;74.00
84265;DHT22;74412;45.626;5.108;2024-02-26T09:02:10;10.75;73.56
84265;DHT22;74412;45.626;5.108;2024-02-26T09:04:37;10.89;73.50
84265;DHT22;74412;45.626;5.108;2024-02-26T09:07:03;11.02;73.12
84265;DHT22;74412;45.626;5.108;2024-02-26T09:09:31;11.15;72.58
84265;DHT22;74412;45.626;5.108;2024-02-26T09:11:57;11.28;72.32
84265;DHT22;74412;45.626;5.108;2024-02-26T09:14:25;11.42;72.63
84265;DHT22;74412;45.626;5.108;2024-02-26T09:16:52;11.53;72.06
84265;DHT22;74412;45.626;5.108;2024-02-26T09:19:18;11.65;72.06
84265;DHT22;74412;45.626;5.108;2024-02-26T09:21:45;11.79;71.52
84265;DHT22;74412;45.626;5.108;2024-02-26T09:24:12;11.89;71.32
84265;DHT22;74412;45.626;5.108;2024-02-26T09:26:40;12.00;71.22
84265;DHT22;74412;45.626;5.108;2024-02-26T09:29:06;12.07;71.12
84265;DHT22;74412;45.626;5.108;2024-02-26T09:31:35;12.16;70.22
84265;DHT22;74412;45.626;5.108;2024-02-26T09:34:01;12.24;70.52
84265;DHT22;74412;45.626;5.108;2024-02-26T09:36:28;12.32;70.50
84265;DHT22;74412;45.626;5.108;2024-02-26T09:38:54;12.41;70.01
84265;DHT22;74412;45.626;5.108;2024-02-26T09:41:21;12.51;69.74
84265;DHT22;74412;45.626;5.108;2024-02-26T09:43:48;12.56;69.59
84265;DHT22;74412;45.626;5.108;2024-02-26T09:46:16;12.65;69.31
84265;DHT22;74412;45.626;5.108;2024-02-26T09:48:47;12.71;68.96
84265;DHT22;74412;45.626;5.108;2024-02-26T09:51:14;12.81;69.40
84265;DHT22;74412;45.626;5.108;2024-02-26T09:53:43;12.89;68.47
84265;DHT22;74412;45.626;5.108;2024-02-26T09:56:11;12.97;68.87
84265;DHT22;74412;45.626;5.108;2024-02-26T09:58:39;13.03;67.95
84265;DHT22;74412;45.626;5.108;2024-02-26T10:01:09;13.10;68.38
84265;DHT22;74412;45.626;5.108;2024-02-26T10:03:39;13.16;68.09
84265;DHT22;74412;45.626;5.108;2024-02-26T10:06:08;13.23;68.18
84265;DHT22;74412;45.626;5.108;2024-02-26T10:08:35;13.32;68.36
84265;DHT22;74412;45.626;5.108;2024-02-26T10:11:02;13.42;67.43
84265;DHT22;74412;45.626;5.108;2024-02-26T10:13:29;13.46;66.94
84265;DHT22;74412;45.626;5.108;2024-02-26T10:15:56;13.50;66.63
84265;DHT22;74412;45.626;5.108;2024-02-26T10:18:24;13.53;66.82
84265;DHT22;74412;45.626;5.108;2024-02-26T10:21:00;13.59;66.91
84265;DHT22;74412;45.626;5.108;2024-02-26T10:23:28;13.63;66.26
84265;DHT22;74412;45.626;5.108;2024-02-26T10:25:55;13.71;66.90
84265;DHT22;74412;45.626;5.108;2024-02-26T10:28:22;13.80;66.69
84265;DHT22;74412;45.626;5.108;2024-02-26T10:30:51;13.85;66.09
84265;DHT22;74412;45.626;5.108;2024-02-26T10:33:18;13.97;66.00
84265;DHT22;74412;45.626;5.108;2024-02-26T10:35:46;14.02;64.90
84265;DHT22;74412;45.626;5.108;2024-02-26T10:38:12;14.08;64.60
84265;DHT22;74412;45.626;5.108;2024-02-26T10:40:44;14.10;64.92
84265;DHT22;74412;45.626;5.108;2024-02-26T10:43:10;14.17;65.25
84265;DHT22;74412;45.626;5.108;2024-02-26T10:45:38;14.25;64.56
84265;DHT22;74412;45.626;5.108;2024-02-26T10:48:09;14.29;64.63
84265;DHT22;74412;45.626;5.108;2024-02-26T10:50:36;14.31;64.19
84265;DHT22;74412;45.626;5.108;2024-02-26T10:53:05;14.31;63.88
84265;DHT22;74412;45.626;5.108;2024-02-26T10:55:34;14.34;64.63
84265;DHT22;74412;45.626;5.108;2024-02-26T10:58:04;14.42;63.91
84265;DHT22;74412;45.626;5.108;2024-02-26T11:00:31;14.46;64.52
84265;DHT22;74412;45.626;5.108;2024-02-26T11:02:58;14.52;63.65
84265;DHT22;74412;45.626;5.108;2024-02-26T11:05:28;14.51;63.70
84265;DHT22;74412;45.626;5.108;2024-02-26T11:07:56;14.59;63.56
84265;DHT22;74412;45.626;5.108;2024-02-26T11:10:24;14.63;63.98
84265;DHT22;74412;45.626;5.108;2024-02-26T11:12:52;14.68;63.27
84265;DHT22;74412;45.626;5.108;2024-02-26T11:15:22;14.75;62.93
84265;DHT22;74412;45.626;5.108;2024-02-26T11:17:50;14.77;62.69
84265;DHT22;74412;45.626;5.108;2024-02-26T11:20:19;14.83;63.30
84265;DHT22;74412;45.626;5.108;2024-02-26T11:22:46;14.89;62.92
84265;DHT22;74412;45.626;5.108;2024-02-26T11:25:12;14.99;62.56
84265;DHT22;74412;45.626;5.108;2024-02-26T11:27:44;15.02;61.74
84265;DHT22;74412;45.626;5.108;2024-02-26T11:30:13;15.11;62.21
84265;DHT22;74412;45.626;5.108;2024-02-26T11:32:45;15.17;61.30
84265;DHT22;74412;45.626;5.108;2024-02-26T11:35:12;15.26;61.65
84265;DHT22;74412;45.626;5.108;2024-02-26T11:37:40;15.28;61.05
84265;DHT22;74412;45.626;5.108;2024-02-26T11:40:10;15.34;60.71
84265;DHT22;74412;45.626;5.108;2024-02-26T11:42:43;15.36;60.34
84265;DHT22;74412;45.626;5.108;2024-02-26T11:48:13;15.43;59.42
84265;DHT22;74412;45.626;5.108;2024-02-26T11:50:41;15.46;58.82
84265;DHT22;74412;45.626;5.108;2024-02-26T11:53:23;15.41;58.63
84265;DHT22;74412;45.626;5.108;2024-02-26T11:56:25;15.44;59.27
84265;DHT22;74412;45.626;5.108;2024-02-26T11:58:57;15.47;58.93
84265;DHT22;74412;45.626;5.108;2024-02-26T12:01:41;15.53;57.99
84265;DHT22;74412;45.626;5.108;2024-02-26T12:04:14;15.48;58.12
84265;DHT22;74412;45.626;5.108;2024-02-26T12:06:43;15.50;58.16
84265;DHT22;74412;45.626;5.108;2024-02-26T12:09:11;15.51;57.98
84265;DHT22;74412;45.626;5.108;2024-02-26T12:11:38;15.53;58.56
84265;DHT22;74412;45.626;5.108;2024-02-26T12:14:07;15.53;57.58
84265;DHT22;74412;45.626;5.108;2024-02-26T12:16:35;15.53;57.71
84265;DHT22;74412;45.626;5.108;2024-02-26T12:19:04;15.51;57.49
84265;DHT22;74412;45.626;5.108;2024-02-26T12:21:33;15.48;57.46
84265;DHT22;74412;45.626;5.108;2024-02-26T12:24:10;15.50;57.11
84265;DHT22;74412;45.626;5.108;2024-02-26T12:26:37;15.54;57.62
84265;DHT22;74412;45.626;5.108;2024-02-26T12:29:04;15.60;57.78
84265;DHT22;74412;45.626;5.108;2024-02-26T12:31:31;15.68;58.76
84265;DHT22;74412;45.626;5.108;2024-02-26T12:33:58;15.78;57.73
84265;DHT22;74412;45.626;5.108;2024-02-26T12:36:25;15.81;57.94
84265;DHT22;74412;45.626;5.108;2024-02-26T12:38:54;15.81;57.32
84265;DHT22;74412;45.626;5.108;2024-02-26T12:41:21;15.84;57.67
84265;DHT22;74412;45.626;5.108;2024-02-26T12:43:48;15.78;57.18
84265;DHT22;74412;45.626;5.108;2024-02-26T12:46:15;15.64;56.23
84265;DHT22;74412;45.626;5.108;2024-02-26T12:48:43;15.53;57.71
84265;DHT22;74412;45.626;5.108;2024-02-26T12:51:10;15.51;57.46
84265;DHT22;74412;45.626;5.108;2024-02-26T12:53:38;15.48;57.92
84265;DHT22;74412;45.626;5.108;2024-02-26T12:56:07;15.46;58.20
84265;DHT22;74412;45.626;5.108;2024-02-26T12:58:36;15.44;58.53
84265;DHT22;74412;45.626;5.108;2024-02-26T13:01:05;15.46;57.49
84265;DHT22;74412;45.626;5.108;2024-02-26T13:03:32;15.43;57.80
84265;DHT22;74412;45.626;5.108;2024-02-26T13:05:59;15.41;58.16
84265;DHT22;74412;45.626;5.108;2024-02-26T13:08:26;15.41;56.26
84265;DHT22;74412;45.626;5.108;2024-02-26T13:10:53;15.37;57.34
84265;DHT22;74412;45.626;5.108;2024-02-26T13:13:22;15.36;57.07
84265;DHT22;74412;45.626;5.108;2024-02-26T13:15:49;15.30;56.53
84265;DHT22;74412;45.626;5.108;2024-02-26T13:18:15;15.23;56.79
84265;DHT22;74412;45.626;5.108;2024-02-26T13:20:42;15.11;57.33
84265;DHT22;74412;45.626;5.108;2024-02-26T13:23:12;14.97;57.22
84265;DHT22;74412;45.626;5.108;2024-02-26T13:25:39;14.85;57.53
84265;DHT22;74412;45.626;5.108;2024-02-26T13:28:14;14.76;57.77
84265;DHT22;74412;45.626;5.108;2024-02-26T13:30:50;14.75;58.49
84265;DHT22;74412;45.626;5.108;2024-02-26T13:33:17;14.80;58.85
84265;DHT22;74412;45.626;5.108;2024-02-26T13:35:43;14.83;58.87
84265;DHT22;74412;45.626;5.108;2024-02-26T13:38:10;14.87;59.48
84265;DHT22;74412;45.626;5.108;2024-02-26T13:40:37;14.95;59.57
84265;DHT22;74412;45.626;5.108;2024-02-26T13:43:04;14.97;58.18
84265;DHT22;74412;45.626;5.108;2024-02-26T13:45:33;15.00;57.88
84265;DHT22;74412;45.626;5.108;2024-02-26T13:48:04;15.02;57.84
84265;DHT22;74412;45.626;5.108;2024-02-26T13:50:31;15.03;57.62
84265;DHT22;74412;45.626;5.108;2024-02-26T13:52:58;15.04;56.71
84265;DHT22;74412;45.626;5.108;2024-02-26T13:55:25;15.04;56.92
84265;DHT22;74412;45.626;5.108;2024-02-26T13:57:53;15.03;57.11
84265;DHT22;74412;45.626;5.108;2024-02-26T14:00:20;15.03;56.74
84265;DHT22;74412;45.626;5.108;2024-02-26T14:02:47;15.03;56.50
84265;DHT22;74412;45.626;5.108;2024-02-26T14:05:15;15.04;56.26
84265;DHT22;74412;45.626;5.108;2024-02-26T14:07:42;15.04;56.53
84265;DHT22;74412;45.626;5.108;2024-02-26T14:10:11;15.04;55.97
84265;DHT22;74412;45.626;5.108;2024-02-26T14:12:38;15.03;55.80
84265;DHT22;74412;45.626;5.108;2024-02-26T14:15:07;15.03;57.19
84265;DHT22;74412;45.626;5.108;2024-02-26T14:17:34;15.04;57.82
84265;DHT22;74412;45.626;5.108;2024-02-26T14:20:00;15.06;57.50
84265;DHT22;74412;45.626;5.108;2024-02-26T14:22:29;15.11;56.76
84265;DHT22;74412;45.626;5.108;2024-02-26T14:24:56;15.11;56.66
84265;DHT22;74412;45.626;5.108;2024-02-26T14:27:23;15.10;55.79
84265;DHT22;74412;45.626;5.108;2024-02-26T14:29:49;15.06;55.12
84265;DHT22;74412;45.626;5.108;2024-02-26T14:32:16;15.03;55.84
84265;DHT22;74412;45.626;5.108;2024-02-26T14:34:43;15.00;56.60
84265;DHT22;74412;45.626;5.108;2024-02-26T14:37:10;14.97;57.15
84265;DHT22;74412;45.626;5.108;2024-02-26T14:39:38;14.93;56.32
84265;DHT22;74412;45.626;5.108;2024-02-26T14:42:05;14.95;56.43
84265;DHT22;74412;45.626;5.108;2024-02-26T14:44:32;14.90;55.78
84265;DHT22;74412;45.626;5.108;2024-02-26T14:46:58;14.86;55.81
84265;DHT22;74412;45.626;5.108;2024-02-26T14:49:25;14.82;55.83
84265;DHT22;74412;45.626;5.108;2024-02-26T14:51:51;14.75;55.42
84265;DHT22;74412;45.626;5.108;2024-02-26T14:54:18;14.65;55.50
84265;DHT22;74412;45.626;5.108;2024-02-26T14:56:47;14.58;55.74
84265;DHT22;74412;45.626;5.108;2024-02-26T14:59:14;14.49;56.28
84265;DHT22;74412;45.626;5.108;2024-02-26T15:01:41;14.44;56.85
84265;DHT22;74412;45.626;5.108;2024-02-26T15:04:07;14.42;57.18
84265;DHT22;74412;45.626;5.108;2024-02-26T15:06:34;14.41;57.12
84265;DHT22;74412;45.626;5.108;2024-02-26T15:09:01;14.39;57.09
84265;DHT22;74412;45.626;5.108;2024-02-26T15:11:28;14.39;57.24
84265;DHT22;74412;45.626;5.108;2024-02-26T15:13:56;14.36;57.56
84265;DHT22;74412;45.626;5.108;2024-02-26T15:16:23;14.35;58.11
84265;DHT22;74412;45.626;5.108;2024-02-26T15:18:50;14.35;57.63
84265;DHT22;74412;45.626;5.108;2024-02-26T15:21:16;14.32;58.34
84265;DHT22;74412;45.626;5.108;2024-02-26T15:23:43;14.38;58.21
84265;DHT22;74412;45.626;5.108;2024-02-26T15:26:11;14.34;58.14
84265;DHT22;74412;45.626;5.108;2024-02-26T15:28:37;14.34;56.63
84265;DHT22;74412;45.626;5.108;2024-02-26T15:31:05;14.32;56.94
84265;DHT22;74412;45.626;5.108;2024-02-26T15:33:33;14.32;57.16
84265;DHT22;74412;45.626;5.108;2024-02-26T15:36:00;14.29;56.53
84265;DHT22;74412;45.626;5.108;2024-02-26T15:38:26;14.28;57.18
84265;DHT22;74412;45.626;5.108;2024-02-26T15:40:54;14.24;56.72
84265;DHT22;74412;45.626;5.108;2024-02-26T15:43:20;14.24;56.79